Time;durP1;ratioP1;P1;durP2;ratioP2;P2;SDS_P1;SDS_P2;PMS_P1;PMS_P2;Temp;Humidity;BMP_temperature;BMP_pressure;BME280_temperature;BME280_humidity;BME280_pressure;Samples;Min_cycle;Max_cycle;Signal;HPM_P1;HPM_P2
2024/03/31 00:02:09;;;;;;;4.33;2.47;;;;;;;20.14;53.18;95703.69;5040675;28;20688;-25
2024/03/31 00:04:35;;;;;;;5.97;2.60;;;;;;;20.13;53.42;95698.59;5046498;28;20707;-25
2024/03/31 00:07:02;;;;;;;7.63;2.57;;;;;;;20.13;53.46;95693.50;5052676;28;20620;-25
2024/03/31 00:09:28;;;;;;;8.20;2.47;;;;;;;20.13;53.39;95691.78;5057107;28;20211;-26
2024/03/31 00:11:54;;;;;;;3.57;2.20;;;;;;;20.10;53.85;95678.97;5048177;28;20220;-25
2024/03/31 00:14:20;;;;;;;6.37;2.30;;;;;;;20.11;53.33;95684.94;5050931;28;20208;-26
2024/03/31 00:16:46;;;;;;;4.57;1.87;;;;;;;20.14;52.99;95690.09;5046165;28;20196;-25
2024/03/31 00:19:11;;;;;;;5.57;2.70;;;;;;;20.13;53.26;95678.19;5056649;28;20310;-25
2024/03/31 00:21:37;;;;;;;4.40;2.20;;;;;;;20.14;53.61;95675.66;5046467;28;20574;-25
2024/03/31 00:24:03;;;;;;;5.67;2.20;;;;;;;20.14;53.41;95672.22;5055344;28;21526;-25
2024/03/31 00:26:28;;;;;;;6.93;2.23;;;;;;;20.15;53.75;95672.25;5046744;28;20216;-25
2024/03/31 00:28:54;;;;;;;3.93;2.23;;;;;;;20.17;53.39;95679.91;5050560;28;20246;-26
2024/03/31 00:31:20;;;;;;;7.57;2.33;;;;;;;20.15;53.36;95682.44;5055096;28;20634;-25
2024/03/31 00:33:48;;;;;;;4.90;1.90;;;;;;;20.16;53.50;95690.97;5052032;28;20712;-28
2024/03/31 00:36:14;;;;;;;5.10;1.93;;;;;;;20.13;52.71;95686.66;5050754;28;20207;-25
2024/03/31 00:38:39;;;;;;;6.77;2.57;;;;;;;20.08;53.21;95682.38;5038107;28;20224;-25
2024/03/31 00:41:05;;;;;;;5.03;2.17;;;;;;;20.14;53.46;95701.16;5053316;28;20279;-25
2024/03/31 00:43:31;;;;;;;4.93;2.20;;;;;;;20.12;53.33;95697.69;5047746;28;20200;-25
2024/03/31 00:45:56;;;;;;;3.27;2.17;;;;;;;20.14;53.21;95703.69;5048859;28;20687;-26
2024/03/31 00:48:22;;;;;;;4.70;2.20;;;;;;;20.15;53.38;95699.44;5056194;28;20251;-25
2024/03/31 00:50:47;;;;;;;5.13;2.13;;;;;;;20.13;53.39;95696.03;5051444;28;20255;-30
2024/03/31 00:53:13;;;;;;;4.13;2.40;;;;;;;20.13;53.35;95696.88;5059647;28;20199;-26
2024/03/31 00:55:39;;;;;;;5.63;2.10;;;;;;;20.15;53.58;95707.09;5050348;28;20212;-25
2024/03/31 00:58:04;;;;;;;6.47;2.33;;;;;;;20.16;53.51;95706.25;5054374;28;21177;-25
2024/03/31 01:00:30;;;;;;;7.97;2.53;;;;;;;20.15;53.34;95705.38;5051126;28;20291;-26
2024/03/31 01:02:56;;;;;;;6.37;2.20;;;;;;;20.14;53.47;95708.78;5039870;28;20280;-25
2024/03/31 01:05:21;;;;;;;5.20;2.40;;;;;;;20.16;53.49;95702.00;5053522;28;20204;-25
2024/03/31 01:07:47;;;;;;;8.57;2.87;;;;;;;20.16;53.54;95717.28;5038835;28;20299;-25
2024/03/31 01:10:13;;;;;;;4.57;2.10;;;;;;;20.17;53.56;95728.34;5038285;28;20200;-27
2024/03/31 01:12:38;;;;;;;4.77;2.50;;;;;;;20.10;53.52;95701.91;5058783;28;20220;-25
2024/03/31 01:15:04;;;;;;;3.30;2.10;;;;;;;20.13;53.51;95719.00;5027383;28;20196;-25
2024/03/31 01:17:30;;;;;;;8.23;2.77;;;;;;;20.15;53.52;95714.72;5048155;28;20709;-25
2024/03/31 01:19:56;;;;;;;5.60;2.40;;;;;;;20.11;53.57;95706.19;5062464;28;20202;-25
2024/03/31 01:22:21;;;;;;;5.10;2.20;;;;;;;20.12;53.60;95704.47;5046679;28;20200;-25
2024/03/31 01:24:47;;;;;;;3.10;2.13;;;;;;;20.15;53.60;95704.53;5041365;28;20207;-25
2024/03/31 01:27:12;;;;;;;6.43;2.30;;;;;;;20.14;53.45;95700.28;5071204;28;20230;-25
2024/03/31 01:29:38;;;;;;;3.67;2.00;;;;;;;20.14;53.64;95702.84;5053938;28;20577;-26
2024/03/31 01:32:04;;;;;;;3.63;2.30;;;;;;;20.15;53.38;95712.19;5054645;28;20701;-25
2024/03/31 01:34:29;;;;;;;8.00;2.43;;;;;;;20.09;53.41;95695.13;5035284;28;20212;-25
2024/03/31 01:36:55;;;;;;;5.47;2.30;;;;;;;20.16;53.68;95701.16;5042691;28;20203;-25
2024/03/31 01:39:20;;;;;;;4.63;2.20;;;;;;;20.17;53.43;95713.06;5062995;28;20210;-25
2024/03/31 01:41:49;;;;;;;4.83;2.60;;;;;;;20.15;53.46;95714.72;5063236;28;20290;-25
2024/03/31 01:44:15;;;;;;;6.93;2.20;;;;;;;20.14;53.29;95713.03;5052527;28;20211;-25
2024/03/31 01:46:40;;;;;;;6.10;2.37;;;;;;;20.14;53.63;95730.88;5060273;28;20203;-25
2024/03/31 01:49:06;;;;;;;4.90;2.63;;;;;;;20.16;53.52;95742.78;5054875;28;20222;-25
2024/03/31 01:51:32;;;;;;;5.07;1.97;;;;;;;20.08;53.31;95729.13;5056705;28;20269;-25
2024/03/31 01:53:57;;;;;;;4.93;2.30;;;;;;;20.15;53.44;95746.19;5049058;28;20230;-25
2024/03/31 01:56:23;;;;;;;6.70;2.40;;;;;;;20.15;53.19;95761.50;5050171;28;20209;-25
2024/03/31 01:58:49;;;;;;;6.83;2.53;;;;;;;20.15;53.49;95792.09;5034052;28;20216;-26
2024/03/31 02:01:15;;;;;;;5.63;2.30;;;;;;;20.15;53.70;95829.50;5053430;28;20195;-28
2024/03/31 02:03:40;;;;;;;3.47;2.13;;;;;;;20.16;53.60;95815.91;5048974;28;20287;-25
2024/03/31 02:06:07;;;;;;;6.00;2.63;;;;;;;20.15;53.52;95832.03;5049111;28;20663;-25
2024/03/31 02:08:33;;;;;;;6.03;2.63;;;;;;;20.15;53.41;95827.81;5037543;28;20216;-25
2024/03/31 02:10:59;;;;;;;5.10;2.60;;;;;;;20.17;53.69;95840.56;5062846;28;20285;-25
2024/03/31 02:13:24;;;;;;;3.47;2.07;;;;;;;20.18;53.62;95829.50;5057264;28;20722;-25
2024/03/31 02:15:50;;;;;;;5.83;2.27;;;;;;;20.16;53.68;95836.31;5053928;28;20278;-25
2024/03/31 02:18:16;;;;;;;4.93;2.00;;;;;;;20.17;53.65;95830.38;5039836;28;20686;-25
2024/03/31 02:20:42;;;;;;;5.33;2.07;;;;;;;20.16;53.39;95834.59;5040238;28;20208;-25
2024/03/31 02:23:07;;;;;;;4.87;2.23;;;;;;;20.14;53.29;95818.47;5060129;28;20200;-25
2024/03/31 02:25:33;;;;;;;2.80;2.17;;;;;;;20.10;53.53;95819.22;5047024;28;20283;-25
2024/03/31 02:27:59;;;;;;;5.40;2.27;;;;;;;20.17;53.65;95840.56;5035338;28;20228;-25
2024/03/31 02:30:24;;;;;;;5.40;2.30;;;;;;;20.14;53.47;95832.88;5053602;28;20200;-25
2024/03/31 02:32:50;;;;;;;3.83;2.10;;;;;;;20.15;53.60;95830.34;5048703;28;20200;-25
2024/03/31 02:35:16;;;;;;;4.03;2.03;;;;;;;20.14;53.60;95825.25;5052188;28;20617;-25
2024/03/31 02:37:41;;;;;;;2.90;1.87;;;;;;;20.16;53.66;95844.81;5053219;28;20315;-25
2024/03/31 02:40:07;;;;;;;4.87;2.20;;;;;;;20.16;53.54;95814.19;5050310;28;20627;-25
2024/03/31 02:42:33;;;;;;;4.83;2.23;;;;;;;20.15;53.41;95829.50;5052589;28;20204;-25
2024/03/31 02:44:58;;;;;;;2.77;1.90;;;;;;;20.17;53.60;95820.16;5042543;28;20215;-28
2024/03/31 02:47:24;;;;;;;4.03;2.03;;;;;;;20.18;53.68;95820.19;5055874;28;20235;-25
2024/03/31 02:49:50;;;;;;;3.40;2.03;;;;;;;20.18;53.55;95832.94;5057635;28;20200;-25
2024/03/31 02:52:16;;;;;;;8.07;2.43;;;;;;;20.17;53.59;95800.63;5051606;28;20295;-28
2024/03/31 02:54:41;;;;;;;3.20;2.10;;;;;;;20.16;53.54;95790.41;5054077;28;20216;-25
2024/03/31 02:57:07;;;;;;;3.53;1.90;;;;;;;20.16;53.51;95798.91;5048714;28;20215;-25
2024/03/31 02:59:33;;;;;;;5.07;2.20;;;;;;;20.16;53.64;95792.97;5052873;28;20258;-25
2024/03/31 03:01:58;;;;;;;3.63;2.03;;;;;;;20.15;53.71;95774.25;5052134;28;20322;-25
2024/03/31 03:04:24;;;;;;;3.47;1.93;;;;;;;20.16;53.73;95777.66;5050673;28;20301;-25
2024/03/31 03:06:49;;;;;;;5.13;2.00;;;;;;;20.08;54.01;95743.56;5056854;28;20204;-31
2024/03/31 03:09:15;;;;;;;4.27;2.23;;;;;;;20.13;53.69;95749.59;5055259;28;20284;-25
2024/03/31 03:11:40;;;;;;;4.50;2.03;;;;;;;20.16;53.57;95750.44;5054252;28;20215;-25
2024/03/31 03:14:06;;;;;;;3.73;2.00;;;;;;;20.15;53.71;95737.69;5061096;28;20282;-26
2024/03/31 03:16:32;;;;;;;4.00;2.00;;;;;;;20.15;53.61;95732.59;5054135;28;20204;-34
2024/03/31 03:18:57;;;;;;;5.73;2.20;;;;;;;20.17;53.66;95744.53;5062680;28;20221;-25
2024/03/31 03:21:23;;;;;;;6.00;2.30;;;;;;;20.17;53.51;95747.06;5059214;28;20309;-25
2024/03/31 03:23:48;;;;;;;5.77;2.10;;;;;;;20.17;53.47;95736.00;5052618;28;20215;-25
2024/03/31 03:26:14;;;;;;;3.73;2.00;;;;;;;20.17;53.63;95719.03;5058120;28;20196;-25
2024/03/31 03:28:41;;;;;;;3.20;2.07;;;;;;;20.15;53.60;95715.59;5045254;28;20419;-28
2024/03/31 03:31:06;;;;;;;6.13;2.20;;;;;;;20.15;53.72;95710.50;5049369;28;20225;-25
2024/03/31 03:33:32;;;;;;;4.90;2.00;;;;;;;20.15;53.65;95700.28;5049288;28;20204;-27
2024/03/31 03:36:02;;;;;;;4.07;2.13;;;;;;;20.14;53.54;95701.16;5056668;28;20894;-26
2024/03/31 03:38:28;;;;;;;3.57;2.00;;;;;;;20.17;53.73;95710.50;5038556;28;20599;-25
2024/03/31 03:40:54;;;;;;;4.60;2.20;;;;;;;20.15;53.59;95704.53;5060266;28;20235;-25
2024/03/31 03:43:19;;;;;;;4.23;2.20;;;;;;;20.12;53.65;95701.94;5057308;28;20634;-25
2024/03/31 03:45:46;;;;;;;5.23;2.10;;;;;;;20.08;53.60;95683.22;5062945;28;20200;-26
2024/03/31 03:48:11;;;;;;;4.53;2.13;;;;;;;20.16;53.69;95691.78;5063829;28;20227;-29
2024/03/31 03:50:37;;;;;;;5.40;2.00;;;;;;;20.18;53.95;95694.34;5058075;28;20225;-25
2024/03/31 03:53:05;;;;;;;3.97;1.83;;;;;;;20.18;53.74;95700.31;5053212;28;20573;-25
2024/03/31 03:55:31;;;;;;;2.70;1.80;;;;;;;20.19;53.75;95712.22;5053075;28;20251;-25
2024/03/31 03:57:56;;;;;;;7.00;2.33;;;;;;;20.19;53.79;95709.66;5060169;28;20219;-25
2024/03/31 04:00:22;;;;;;;5.03;2.30;;;;;;;20.18;53.64;95704.53;5054158;28;20209;-25
2024/03/31 04:02:47;;;;;;;4.03;1.83;;;;;;;20.16;53.73;95696.06;5067198;28;20211;-25
2024/03/31 04:05:13;;;;;;;3.03;2.00;;;;;;;20.17;53.83;95703.72;5054259;28;20689;-25
2024/03/31 04:07:39;;;;;;;3.77;2.40;;;;;;;20.17;53.68;95705.41;5055294;28;20219;-25
2024/03/31 04:10:05;;;;;;;7.63;2.37;;;;;;;20.15;53.90;95701.97;5061758;28;20233;-25
2024/03/31 04:12:31;;;;;;;4.27;2.30;;;;;;;20.17;54.12;95702.84;5049204;28;20217;-25
2024/03/31 04:14:57;;;;;;;2.77;2.07;;;;;;;20.16;53.69;95707.09;5056986;28;20274;-27
2024/03/31 04:17:22;;;;;;;4.27;1.83;;;;;;;20.11;53.59;95718.09;5057099;28;20278;-26
2024/03/31 04:19:48;;;;;;;3.60;2.10;;;;;;;20.16;53.68;95719.84;5052300;28;20208;-25
2024/03/31 04:22:14;;;;;;;2.70;1.90;;;;;;;20.15;53.95;95725.78;5062499;28;20260;-26
2024/03/31 04:24:40;;;;;;;2.70;1.80;;;;;;;20.17;53.88;95736.00;5050010;28;20246;-25
2024/03/31 04:27:05;;;;;;;2.50;1.77;;;;;;;20.16;53.95;95726.66;5056797;28;20224;-25
2024/03/31 04:29:31;;;;;;;3.53;2.03;;;;;;;20.18;54.01;95724.94;5062423;28;20197;-26
2024/03/31 04:31:57;;;;;;;8.73;2.53;;;;;;;20.19;54.15;95730.06;5055162;28;20224;-25
2024/03/31 04:34:23;;;;;;;4.07;2.07;;;;;;;20.18;53.92;95732.59;5057924;28;20288;-25
2024/03/31 04:36:49;;;;;;;4.07;2.10;;;;;;;20.18;53.85;95723.25;5060704;28;20255;-25
2024/03/31 04:39:14;;;;;;;4.67;2.07;;;;;;;20.16;53.92;95730.03;5055262;28;20258;-25
2024/03/31 04:41:40;;;;;;;2.83;1.80;;;;;;;20.17;53.75;95724.13;5066625;28;20196;-27
2024/03/31 04:44:06;;;;;;;4.80;2.10;;;;;;;20.18;53.75;95735.16;5050400;28;20197;-26
2024/03/31 04:46:31;;;;;;;4.03;2.30;;;;;;;20.17;53.86;95736.00;5058282;28;20210;-25
2024/03/31 04:48:57;;;;;;;6.70;2.33;;;;;;;20.15;53.68;95748.75;5050001;28;20231;-25
2024/03/31 04:51:22;;;;;;;3.73;1.97;;;;;;;20.17;53.94;95749.63;5049566;28;20220;-25
2024/03/31 04:53:48;;;;;;;3.37;1.93;;;;;;;20.17;53.50;95746.22;5052009;28;20259;-25
2024/03/31 04:56:14;;;;;;;3.00;1.80;;;;;;;20.17;53.99;95754.72;5031043;28;20212;-25
2024/03/31 04:58:39;;;;;;;4.07;2.20;;;;;;;20.16;53.86;95763.19;5056924;28;20228;-25
2024/03/31 05:01:05;;;;;;;4.97;2.23;;;;;;;20.18;54.02;95765.75;5048020;28;20193;-25
2024/03/31 05:03:30;;;;;;;3.57;2.00;;;;;;;20.19;54.11;95770.03;5051803;28;20205;-28
2024/03/31 05:05:56;;;;;;;3.23;1.90;;;;;;;20.18;53.91;95770.84;5047647;28;20212;-25
2024/03/31 05:08:22;;;;;;;4.13;2.13;;;;;;;20.15;53.76;95760.63;5050127;28;20228;-25
2024/03/31 05:10:54;;;;;;;4.60;2.10;;;;;;;20.18;54.08;95770.84;5053306;28;20204;-25
2024/03/31 05:13:20;;;;;;;3.07;2.00;;;;;;;20.18;53.92;95765.75;5040326;28;20211;-25
2024/03/31 05:15:45;;;;;;;3.30;2.03;;;;;;;20.18;53.95;95761.53;5052113;28;20204;-25
2024/03/31 05:18:16;;;;;;;4.20;2.33;;;;;;;20.18;53.97;95770.84;5060917;28;20220;-29
2024/03/31 05:20:42;;;;;;;3.73;1.90;;;;;;;20.17;53.91;95780.22;5055942;28;20200;-25
2024/03/31 05:23:08;;;;;;;4.90;2.17;;;;;;;20.16;53.84;95775.94;5047371;28;20258;-25
2024/03/31 05:25:34;;;;;;;3.57;2.13;;;;;;;20.18;53.80;95793.81;5065700;28;20279;-25
2024/03/31 05:28:00;;;;;;;4.47;2.33;;;;;;;20.17;53.71;95804.88;5055244;28;20223;-25
2024/03/31 05:30:26;;;;;;;4.77;2.10;;;;;;;20.17;53.91;95800.63;5054039;28;20238;-26
2024/03/31 05:32:52;;;;;;;5.33;2.07;;;;;;;20.17;53.59;95802.31;5052384;28;20220;-27
2024/03/31 05:35:17;;;;;;;4.30;2.20;;;;;;;19.99;53.88;95769.84;5052307;28;20249;-25
2024/03/31 05:37:43;;;;;;;3.10;1.90;;;;;;;20.19;53.89;95800.63;5056224;28;20294;-25
2024/03/31 05:40:09;;;;;;;2.20;1.60;;;;;;;20.17;53.86;95805.72;5060520;28;20738;-25
2024/03/31 05:42:34;;;;;;;3.00;1.77;;;;;;;20.20;53.78;95802.34;5069377;28;20210;-25
2024/03/31 05:45:00;;;;;;;2.97;1.70;;;;;;;20.11;54.16;95792.91;5055242;28;20208;-26
2024/03/31 05:47:26;;;;;;;2.40;1.80;;;;;;;20.17;54.07;95805.72;5035189;28;20227;-25
2024/03/31 05:49:51;;;;;;;3.23;2.00;;;;;;;20.13;54.00;95811.63;5050292;28;20200;-25
2024/03/31 05:52:17;;;;;;;6.00;2.03;;;;;;;20.17;54.00;95804.88;5054349;28;20224;-25
2024/03/31 05:54:42;;;;;;;3.60;2.00;;;;;;;20.16;54.05;95821.84;5048072;28;20278;-28
2024/03/31 05:57:08;;;;;;;3.50;2.33;;;;;;;20.15;53.97;95832.03;5046441;28;20220;-25
2024/03/31 05:59:34;;;;;;;4.10;2.07;;;;;;;20.18;53.94;95824.41;5069834;28;20265;-30
2024/03/31 06:01:59;;;;;;;3.87;2.00;;;;;;;20.18;54.02;95829.50;5050065;28;20659;-25
2024/03/31 06:04:25;;;;;;;2.80;1.73;;;;;;;20.16;53.84;95819.31;5036218;28;20196;-27
2024/03/31 06:06:50;;;;;;;4.17;2.20;;;;;;;20.10;54.01;95809.03;5049484;28;20283;-25
2024/03/31 06:09:16;;;;;;;3.40;2.10;;;;;;;20.17;54.03;95826.13;5048446;28;20200;-27
2024/03/31 06:11:42;;;;;;;2.43;1.80;;;;;;;20.18;54.02;95834.63;5038207;28;20224;-25
2024/03/31 06:14:08;;;;;;;3.47;1.80;;;;;;;20.18;54.12;95825.28;5055502;28;20205;-25
2024/03/31 06:16:33;;;;;;;3.33;1.83;;;;;;;20.15;53.86;95827.81;5049667;28;20589;-25
2024/03/31 06:18:59;;;;;;;3.43;2.00;;;;;;;20.18;53.85;95832.06;5054871;28;20310;-25
2024/03/31 06:21:25;;;;;;;3.10;2.07;;;;;;;20.18;54.09;95825.28;5059368;28;20204;-25
2024/03/31 06:23:50;;;;;;;4.97;2.17;;;;;;;20.17;54.08;95817.63;5045534;28;20216;-25
2024/03/31 06:26:16;;;;;;;3.80;2.20;;;;;;;20.18;54.09;95824.41;5047527;28;20250;-25
2024/03/31 06:28:41;;;;;;;2.73;1.87;;;;;;;20.18;53.97;95824.41;5051019;28;20307;-25
2024/03/31 06:31:07;;;;;;;4.27;2.10;;;;;;;20.16;54.01;95818.47;5030648;28;20227;-25
2024/03/31 06:33:33;;;;;;;2.10;1.90;;;;;;;20.14;54.02;95810.81;5047262;28;20212;-25
2024/03/31 06:35:58;;;;;;;5.93;2.50;;;;;;;20.17;53.85;95817.63;5046674;28;20204;-25
2024/03/31 06:38:24;;;;;;;3.43;2.37;;;;;;;20.12;53.83;95816.69;5043126;28;20281;-25
2024/03/31 06:40:49;;;;;;;4.63;1.90;;;;;;;20.17;53.95;95823.56;5047584;28;20225;-25
2024/03/31 06:43:15;;;;;;;2.73;2.00;;;;;;;20.10;54.16;95809.03;5049674;28;20204;-25
2024/03/31 06:45:41;;;;;;;4.00;2.20;;;;;;;20.19;54.09;95824.44;5054287;28;20849;-25
2024/03/31 06:48:06;;;;;;;4.27;2.10;;;;;;;20.20;54.11;95835.50;5057909;28;20236;-25
2024/03/31 06:50:32;;;;;;;7.50;2.40;;;;;;;20.20;54.24;95838.91;5055187;28;20208;-25
2024/03/31 06:52:58;;;;;;;5.47;2.07;;;;;;;20.18;54.17;95835.47;5054700;28;20220;-25
2024/03/31 06:55:23;;;;;;;6.83;2.20;;;;;;;20.19;54.28;95832.06;5047401;28;20200;-25
2024/03/31 06:57:49;;;;;;;6.73;2.23;;;;;;;20.16;54.20;95821.03;5062086;28;20234;-25
2024/03/31 07:00:14;;;;;;;4.07;2.40;;;;;;;20.19;54.01;95842.28;5063361;28;20341;-25
2024/03/31 07:02:40;;;;;;;4.27;2.27;;;;;;;20.20;54.14;95827.84;5028938;28;20674;-25
2024/03/31 07:05:06;;;;;;;4.13;2.27;;;;;;;20.20;54.30;95812.53;5058953;28;20226;-25
2024/03/31 07:07:31;;;;;;;10.17;2.63;;;;;;;20.20;53.65;95815.09;5052155;28;20693;-27
2024/03/31 07:09:57;;;;;;;11.40;3.50;;;;;;;20.19;53.25;95809.13;5047723;28;20200;-28
2024/03/31 07:12:23;;;;;;;10.33;3.60;;;;;;;20.12;53.60;95803.94;5055428;28;20241;-25
2024/03/31 07:14:48;;;;;;;12.23;3.57;;;;;;;20.19;52.58;95819.31;5034705;28;20619;-25
2024/03/31 07:17:14;;;;;;;12.07;3.90;;;;;;;20.18;52.21;95814.22;5052674;28;20217;-25
2024/03/31 07:19:40;;;;;;;15.60;5.10;;;;;;;20.19;51.49;95810.84;5050970;28;20279;-25
2024/03/31 07:22:06;;;;;;;19.77;5.50;;;;;;;20.20;51.27;95813.41;5053464;28;20778;-25
2024/03/31 07:24:31;;;;;;;24.43;5.50;;;;;;;20.17;51.00;95794.66;5053302;28;20204;-25
2024/03/31 07:26:57;;;;;;;20.63;5.70;;;;;;;20.13;50.99;95782.75;5052147;28;20204;-25
2024/03/31 07:29:22;;;;;;;23.87;5.73;;;;;;;20.18;50.10;95798.91;5053459;28;20287;-26
2024/03/31 07:31:48;;;;;;;28.03;7.60;;;;;;;20.18;50.12;95809.97;5050903;28;20220;-25
2024/03/31 07:34:14;;;;;;;27.03;7.40;;;;;;;20.18;50.25;95806.56;5052901;28;20562;-25
2024/03/31 07:36:39;;;;;;;20.10;6.43;;;;;;;20.16;50.08;95808.25;5049798;28;20204;-25
2024/03/31 07:39:05;;;;;;;24.40;6.50;;;;;;;20.19;50.30;95803.19;5053295;28;20222;-25
2024/03/31 07:41:30;;;;;;;24.83;6.70;;;;;;;20.17;50.68;95800.63;5050768;28;20200;-25
2024/03/31 07:43:56;;;;;;;23.90;6.93;;;;;;;20.18;50.54;95812.53;5052800;28;20647;-25
2024/03/31 07:46:22;;;;;;;24.40;6.97;;;;;;;20.15;50.39;95801.44;5052695;28;20211;-25
2024/03/31 07:48:47;;;;;;;31.67;7.07;;;;;;;20.16;50.71;95800.63;5053081;28;20239;-24
2024/03/31 07:51:14;;;;;;;18.77;6.03;;;;;;;20.18;50.70;95791.25;5047915;28;20253;-25
2024/03/31 07:53:40;;;;;;;23.00;6.50;;;;;;;20.17;50.90;95785.31;5042411;28;20196;-25
2024/03/31 07:56:05;;;;;;;23.87;7.40;;;;;;;20.18;50.69;95783.59;5047001;28;20262;-24
2024/03/31 07:58:31;;;;;;;23.53;7.30;;;;;;;20.20;51.19;95790.44;5052890;28;20235;-25
2024/03/31 08:00:56;;;;;;;23.43;6.73;;;;;;;20.22;51.39;95798.94;5050619;28;20279;-25
2024/03/31 08:03:22;;;;;;;26.70;6.57;;;;;;;20.21;51.45;95801.47;5056160;28;20294;-24
2024/03/31 08:05:48;;;;;;;15.87;5.43;;;;;;;20.19;51.49;95798.91;5050575;28;20201;-24
2024/03/31 08:08:14;;;;;;;21.47;6.97;;;;;;;20.20;51.67;95797.22;5045215;28;20227;-25
2024/03/31 08:10:43;;;;;;;23.80;6.80;;;;;;;20.19;51.82;95800.63;5048284;28;20351;-24
2024/03/31 08:13:09;;;;;;;19.93;6.07;;;;;;;20.19;51.81;95808.28;5045015;28;20286;-24
2024/03/31 08:15:34;;;;;;;15.70;5.53;;;;;;;20.19;51.93;95800.63;5048740;28;20624;-24
2024/03/31 08:18:00;;;;;;;16.07;5.53;;;;;;;20.17;51.95;95800.63;5043420;28;20296;-24
2024/03/31 08:20:25;;;;;;;13.23;5.33;;;;;;;20.17;51.96;95799.75;5051880;28;20279;-25
2024/03/31 08:22:51;;;;;;;16.63;5.80;;;;;;;20.17;52.08;95794.66;5052324;28;20200;-25
2024/03/31 08:25:17;;;;;;;17.87;5.97;;;;;;;20.16;51.39;95796.34;5049093;28;20213;-23
2024/03/31 08:27:42;;;;;;;26.87;7.37;;;;;;;20.14;50.31;95781.88;5049778;28;20224;-25
2024/03/31 08:30:08;;;;;;;29.63;6.93;;;;;;;20.13;49.86;95773.38;5049298;28;20211;-25
2024/03/31 08:32:34;;;;;;;28.37;6.97;;;;;;;20.04;48.97;95747.78;5055938;28;20734;-24
2024/03/31 08:34:59;;;;;;;25.83;7.33;;;;;;;20.10;48.99;95752.09;5045241;28;20287;-24
2024/03/31 08:37:25;;;;;;;26.27;8.00;;;;;;;20.09;49.75;95753.78;5056229;28;20220;-25
2024/03/31 08:39:50;;;;;;;28.70;8.53;;;;;;;20.08;50.18;95757.19;5055992;28;20554;-25
2024/03/31 08:42:30;;;;;;;28.40;7.60;;;;;;;20.04;50.33;95747.78;5056178;28;20204;-25
2024/03/31 08:44:56;;;;;;;22.67;7.10;;;;;;;20.06;50.80;95740.13;5041219;28;20200;-24
2024/03/31 08:47:27;;;;;;;22.20;6.97;;;;;;;20.05;50.84;95741.84;5039322;28;20296;-24
2024/03/31 08:49:54;;;;;;;31.07;7.27;;;;;;;20.06;50.96;95752.88;5039693;28;20640;-25
2024/03/31 08:52:20;;;;;;;20.60;6.63;;;;;;;20.07;51.24;95768.19;5055691;28;20224;-24
2024/03/31 08:54:46;;;;;;;24.37;6.63;;;;;;;20.02;51.16;95757.97;5055840;28;20310;-25
2024/03/31 08:57:11;;;;;;;18.57;6.40;;;;;;;20.06;51.25;95766.50;5022718;28;20227;-25
2024/03/31 08:59:37;;;;;;;17.47;6.53;;;;;;;20.06;51.56;95771.59;5055812;28;20208;-26
2024/03/31 09:02:02;;;;;;;20.80;6.07;;;;;;;20.07;51.49;95775.84;5055965;28;20200;-24
2024/03/31 09:04:28;;;;;;;16.67;6.17;;;;;;;20.08;51.41;95782.69;5039333;28;20243;-25
2024/03/31 09:06:54;;;;;;;19.37;6.47;;;;;;;20.10;51.37;95790.34;5055081;28;20346;-25
2024/03/31 09:09:25;;;;;;;22.80;6.33;;;;;;;20.09;51.67;95788.59;5056010;28;20250;-25
2024/03/31 09:11:51;;;;;;;13.67;5.57;;;;;;;20.10;51.63;95791.16;5054885;28;20246;-25
2024/03/31 09:14:17;;;;;;;18.87;6.37;;;;;;;20.10;51.54;95782.69;5056114;28;20204;-25
2024/03/31 09:16:46;;;;;;;14.83;5.67;;;;;;;20.10;51.52;95768.22;5055598;28;20207;-25
2024/03/31 09:19:12;;;;;;;16.23;5.60;;;;;;;20.02;51.75;95739.28;5039421;28;20204;-25
2024/03/31 09:21:45;;;;;;;14.07;5.53;;;;;;;20.07;51.65;95749.53;5055139;28;20196;-25
2024/03/31 09:24:10;;;;;;;13.50;5.77;;;;;;;20.10;51.89;95759.75;5038607;28;20765;-25
2024/03/31 09:26:36;;;;;;;14.53;5.97;;;;;;;20.10;51.96;95754.63;5038800;28;20208;-25
2024/03/31 09:29:02;;;;;;;12.63;5.00;;;;;;;20.07;51.95;95749.53;5022388;28;20274;-25
2024/03/31 09:31:28;;;;;;;12.90;5.47;;;;;;;20.10;51.81;95744.44;5038997;28;20220;-25
2024/03/31 09:33:53;;;;;;;14.47;5.67;;;;;;;20.06;51.94;95745.25;5038544;28;20211;-25
2024/03/31 09:36:19;;;;;;;10.23;4.73;;;;;;;20.11;51.95;95763.97;5054937;28;20291;-24
2024/03/31 09:38:44;;;;;;;16.87;5.53;;;;;;;20.12;52.15;95764.00;5055084;28;20228;-24
2024/03/31 09:41:10;;;;;;;17.37;5.70;;;;;;;20.14;52.07;95764.03;5054479;28;20216;-25
2024/03/31 09:43:36;;;;;;;11.77;4.97;;;;;;;20.15;52.20;95768.28;5055122;28;20291;-26
2024/03/31 09:46:01;;;;;;;14.43;5.10;;;;;;;20.15;51.96;95771.69;5077114;28;20608;-24
2024/03/31 09:48:27;;;;;;;12.80;4.23;;;;;;;20.15;52.11;95764.03;5054641;28;20281;-24
2024/03/31 09:51:02;;;;;;;12.83;4.33;;;;;;;20.16;52.05;95764.91;5049413;28;20212;-24
2024/03/31 09:53:28;;;;;;;11.83;4.47;;;;;;;20.15;52.10;95760.63;5054796;28;20211;-24
2024/03/31 09:56:01;;;;;;;10.17;4.63;;;;;;;20.15;52.23;95776.81;5054673;28;20215;-25
2024/03/31 09:58:27;;;;;;;13.13;4.70;;;;;;;20.11;52.14;95759.75;5055920;28;20224;-24
2024/03/31 10:00:52;;;;;;;18.60;5.30;;;;;;;20.15;52.12;95769.16;5033610;28;20908;-24
2024/03/31 10:03:26;;;;;;;10.77;4.70;;;;;;;20.16;52.27;95757.25;5046004;28;20230;-25
2024/03/31 10:05:52;;;;;;;13.70;4.57;;;;;;;20.14;52.19;95759.81;5034085;28;20223;-24
2024/03/31 10:08:18;;;;;;;13.87;4.83;;;;;;;20.15;52.15;95763.19;5015040;28;20224;-26
2024/03/31 10:10:44;;;;;;;10.43;4.43;;;;;;;20.13;52.22;95765.72;5036893;28;20211;-25
2024/03/31 10:13:09;;;;;;;10.27;4.43;;;;;;;20.15;52.31;95760.63;5020663;28;20220;-31
2024/03/31 10:15:35;;;;;;;11.43;4.70;;;;;;;20.17;52.21;95751.31;5027061;28;20796;-24
2024/03/31 10:18:05;;;;;;;15.43;4.80;;;;;;;20.17;52.11;95753.84;5054032;28;20220;-25
2024/03/31 10:20:30;;;;;;;12.30;4.63;;;;;;;20.21;52.27;95756.44;5050682;28;20204;-25
2024/03/31 10:22:59;;;;;;;12.77;4.50;;;;;;;20.22;52.42;95736.91;5053893;28;20204;-24
2024/03/31 10:25:27;;;;;;;8.40;4.20;;;;;;;20.22;52.54;95714.78;5037307;28;20208;-26
2024/03/31 10:27:53;;;;;;;10.63;4.33;;;;;;;20.23;52.85;95729.25;5053359;28;20220;-25
2024/03/31 10:30:19;;;;;;;8.40;3.70;;;;;;;20.22;52.96;95722.44;5033878;28;20213;-27
2024/03/31 10:32:45;;;;;;;13.57;3.93;;;;;;;20.25;53.09;95730.09;5050191;28;20228;-24
2024/03/31 10:35:10;;;;;;;11.80;4.20;;;;;;;20.24;53.07;95727.53;5036741;28;20208;-25
2024/03/31 10:37:36;;;;;;;12.93;4.33;;;;;;;20.22;52.96;95724.97;5020838;28;20220;-24
2024/03/31 10:40:02;;;;;;;8.50;4.00;;;;;;;20.21;52.84;95728.38;5020673;28;20212;-25
2024/03/31 10:42:28;;;;;;;7.53;3.97;;;;;;;20.22;52.92;95736.91;5053392;28;20200;-24
2024/03/31 10:44:54;;;;;;;13.23;4.10;;;;;;;20.22;53.16;95727.53;5053276;28;20291;-26
2024/03/31 10:47:20;;;;;;;9.87;4.20;;;;;;;20.23;52.92;95718.19;5036756;28;20235;-24
2024/03/31 10:49:46;;;;;;;7.47;3.90;;;;;;;20.22;53.07;95719.03;5052926;28;20212;-24
2024/03/31 10:52:13;;;;;;;7.67;3.87;;;;;;;20.22;53.07;95714.78;5052141;28;20212;-22
2024/03/31 10:54:39;;;;;;;8.03;3.90;;;;;;;20.21;53.09;95718.19;5050567;28;20282;-25
2024/03/31 10:57:09;;;;;;;6.90;3.17;;;;;;;20.21;53.04;95713.09;5036541;28;20219;-25
2024/03/31 10:59:39;;;;;;;9.43;3.60;;;;;;;20.22;52.85;95714.78;5046462;28;20204;-24
2024/03/31 11:02:14;;;;;;;12.80;4.27;;;;;;;20.21;52.92;95709.66;5053295;28;20208;-25
2024/03/31 11:04:44;;;;;;;8.87;3.60;;;;;;;20.20;53.00;95711.38;5044492;28;20196;-25
2024/03/31 11:07:13;;;;;;;10.70;3.40;;;;;;;20.20;53.03;95713.94;5019487;28;20633;-24
2024/03/31 11:09:39;;;;;;;5.40;3.17;;;;;;;20.20;52.83;95711.38;5036236;28;20200;-23
2024/03/31 11:12:06;;;;;;;9.57;3.40;;;;;;;20.22;52.90;95719.03;5020178;28;20223;-25
2024/03/31 11:14:33;;;;;;;7.50;3.80;;;;;;;20.21;52.93;95718.19;5052479;28;20242;-24
2024/03/31 11:16:59;;;;;;;6.87;3.37;;;;;;;20.21;52.93;95713.09;5034312;28;20208;-24
2024/03/31 11:19:24;;;;;;;6.33;3.50;;;;;;;20.21;52.90;95718.19;5029678;28;20208;-23
2024/03/31 11:22:03;;;;;;;6.20;3.50;;;;;;;20.20;52.91;95713.94;5015645;28;20195;-25
2024/03/31 11:24:28;;;;;;;10.17;3.40;;;;;;;20.17;53.01;95710.50;5037380;28;20200;-24
2024/03/31 11:26:54;;;;;;;8.53;3.83;;;;;;;20.20;53.08;95713.06;5031118;28;20214;-25